Airfield :
LOGIN :

Register | Disclaimer

   EN    FR    IT 

 










Legend :    VFR   Marginal VFR   IFR   Intensive IFR   Very Intensive IFR
Visi :
Ceiling :
>= 8 km
>= 3000ft
5 to 8 km
1000 to 3000 ft
1500m to 5 km
500 to 1000 ft
800 to 1500m
200 to 500 ft
< 800m
< 200 ft
Symbols :   Thunderstorms  Fog  Heavy snow  Heavy precipitations  Wind > 20 kt
SIGMETs :     Misc.  Thunderstorms  Icing  Turbulence  Mountain Waves  Volcanic Ashes






- Airport Elevation : 1302 ft
- IATA code : GNB


LFLS - Grenoble / St. Geoirs

CURRENT METAR :
  • 070800Z AUTO 07007KT 040V100 CAVOK 25/12 Q1020 NOSIG

EXPIRED METARs :
  • 070730Z AUTO 08008KT CAVOK 24/12 Q1020 NOSIG
  • 070700Z AUTO 08007KT CAVOK 23/13 Q1020 NOSIG
  • 070630Z AUTO 08008KT CAVOK 21/13 Q1020 NOSIG
  • 070600Z AUTO 09008KT CAVOK 18/13 Q1020 NOSIG
  • 070530Z AUTO 08008KT CAVOK 16/13 Q1020 NOSIG

TAF TAF LFLS
Valid from the 07 at 09:00 until the 08 at 09:00 UTC


070800Z 0709/0809 08005KT CAVOK
BECMG 0709/0711 VRB04KT
TEMPO 0715/0718 36005KT
BECMG 0718/0720 09005KT
ATIS : +33 4 76 65 55 89



MET'MAP, your aeronautical weather chart ! - Copyright ORBIFLY December 2007 - Disclaimer

ORBIFLY MET'MAP TEAM :

Programming & Development : Alexandra Zaïnal
Concept & original design : Baudouin d'Aumeries
Assistance for programming : Marc-Olivier Méhu
Technical & hardware support : Manuel Goepfert

Contact : metmap@orbifly.com




SOURCES & CREDITS :

   NOAA